createdAt,value
2022-11-09T00:01:30.038Z,36.50
2022-11-09T00:04:00.730Z,36.38
2022-11-09T00:06:30.016Z,36.29
2022-11-09T00:09:02.603Z,36.72
2022-11-09T00:11:34.045Z,36.52
2022-11-09T00:14:03.834Z,36.49
2022-11-09T00:16:32.017Z,36.72
2022-11-09T00:19:00.433Z,36.59
2022-11-09T00:21:28.561Z,36.61
2022-11-09T00:23:56.697Z,36.71
2022-11-09T00:26:25.353Z,36.63
2022-11-09T00:28:54.067Z,36.68
2022-11-09T00:31:24.795Z,36.64
2022-11-09T00:33:54.235Z,36.80
2022-11-09T00:36:23.307Z,36.82
2022-11-09T00:38:52.889Z,36.86
2022-11-09T00:41:21.804Z,36.96
2022-11-09T00:43:50.792Z,37.22
2022-11-09T00:46:19.689Z,37.26
2022-11-09T00:48:49.516Z,37.11
2022-11-09T00:51:18.641Z,37.45
2022-11-09T00:53:48.533Z,37.24
2022-11-09T00:56:16.992Z,37.15
2022-11-09T00:58:45.131Z,37.49
2022-11-09T01:01:14.988Z,37.31
2022-11-09T01:03:43.481Z,37.31
2022-11-09T01:06:16.303Z,36.92
2022-11-09T01:08:44.557Z,37.63
2022-11-09T01:11:13.777Z,37.04
2022-11-09T01:13:41.955Z,37.54
2022-11-09T01:16:13.446Z,37.18
2022-11-09T01:18:42.220Z,37.01
2022-11-09T01:21:14.275Z,37.09
2022-11-09T01:23:44.104Z,36.78
2022-11-09T01:26:14.387Z,36.32
2022-11-09T01:28:42.894Z,36.53
2022-11-09T01:31:13.368Z,36.36
2022-11-09T01:33:42.175Z,36.38
2022-11-09T01:36:12.057Z,36.15
2022-11-09T01:38:42.188Z,36.05
2022-11-09T01:41:14.032Z,35.76
2022-11-09T01:43:42.342Z,36.18
2022-11-09T01:46:16.690Z,35.37
2022-11-09T01:48:48.097Z,35.49
2022-11-09T01:51:21.027Z,35.56
2022-11-09T01:53:53.093Z,35.11
2022-11-09T01:56:21.862Z,35.76
2022-11-09T01:58:53.371Z,35.51
2022-11-09T02:01:22.327Z,35.90
2022-11-09T02:03:53.782Z,35.42
2022-11-09T02:06:23.221Z,35.59
2022-11-09T02:08:55.918Z,34.89
2022-11-09T02:11:25.372Z,35.73
2022-11-09T02:13:57.059Z,34.79
2022-11-09T02:16:26.284Z,35.39
2022-11-09T02:18:56.591Z,35.54
2022-11-09T02:21:27.788Z,35.43
2022-11-09T02:23:56.016Z,35.47
2022-11-09T02:26:26.490Z,34.97
2022-11-09T02:28:56.398Z,35.41
2022-11-09T02:31:28.109Z,34.87
2022-11-09T02:33:56.915Z,35.16
2022-11-09T02:36:27.028Z,35.28
2022-11-09T02:38:55.977Z,35.23
2022-11-09T02:41:24.560Z,35.59
2022-11-09T02:43:53.859Z,35.19
2022-11-09T02:46:25.023Z,35.51
2022-11-09T02:48:53.402Z,35.41
2022-11-09T02:51:21.954Z,34.77
2022-11-09T02:53:51.356Z,34.43
2022-11-09T02:56:20.051Z,35.17
2022-11-09T02:58:48.071Z,34.79
2022-11-09T03:01:16.526Z,34.74
2022-11-09T03:03:44.812Z,35.20
2022-11-09T03:06:13.236Z,34.96
2022-11-09T03:08:41.352Z,35.05
2022-11-09T03:11:11.304Z,35.10
2022-11-09T03:13:39.377Z,35.14
2022-11-09T03:16:10.376Z,34.99
2022-11-09T03:18:38.455Z,34.92
2022-11-09T03:21:07.692Z,34.60
2022-11-09T03:23:35.837Z,34.95
2022-11-09T03:26:04.326Z,34.86
2022-11-09T03:28:33.741Z,34.74
2022-11-09T03:31:02.291Z,35.37
2022-11-09T03:33:30.375Z,34.96
2022-11-09T03:35:58.794Z,35.67
2022-11-09T03:38:26.932Z,35.43
2022-11-09T03:40:55.305Z,35.58
2022-11-09T03:43:23.530Z,35.55
2022-11-09T03:45:53.390Z,35.21
2022-11-09T03:48:21.537Z,35.22
2022-11-09T03:50:49.945Z,35.74
2022-11-09T03:53:18.467Z,35.87
2022-11-09T03:55:47.050Z,35.39
2022-11-09T03:58:15.401Z,35.76
2022-11-09T04:00:43.850Z,35.90
2022-11-09T04:03:13.470Z,35.45
2022-11-09T04:05:41.754Z,35.74
2022-11-09T04:08:10.126Z,35.61
2022-11-09T04:10:38.514Z,35.61
2022-11-09T04:13:06.790Z,35.84
2022-11-09T04:15:35.219Z,35.85
2022-11-09T04:18:03.788Z,35.70
2022-11-09T04:20:33.684Z,35.35
2022-11-09T04:23:04.305Z,35.00
2022-11-09T04:25:33.910Z,35.44
2022-11-09T04:28:03.497Z,35.09
2022-11-09T04:30:33.855Z,35.41
2022-11-09T04:33:02.635Z,35.80
2022-11-09T04:35:33.645Z,35.82
2022-11-09T04:38:03.364Z,35.87
2022-11-09T04:40:33.214Z,35.78
2022-11-09T04:43:01.600Z,35.86
2022-11-09T04:45:30.291Z,35.74
2022-11-09T04:47:59.556Z,35.56
2022-11-09T04:50:28.426Z,35.74
2022-11-09T04:53:19.337Z,35.55
2022-11-09T04:55:47.920Z,35.63
2022-11-09T04:58:18.852Z,35.98
2022-11-09T05:00:49.523Z,35.62
2022-11-09T05:03:18.273Z,35.94
2022-11-09T05:05:48.583Z,36.00
2022-11-09T05:08:18.593Z,35.46
2022-11-09T05:10:46.968Z,35.66
2022-11-09T05:13:15.472Z,35.53
2022-11-09T05:15:43.936Z,35.38
2022-11-09T05:18:12.089Z,35.50
2022-11-09T05:20:40.742Z,35.15
2022-11-09T05:23:26.327Z,35.24
2022-11-09T05:25:56.066Z,35.16
2022-11-09T05:28:24.359Z,35.31
2022-11-09T05:30:52.880Z,35.60
2022-11-09T05:33:21.251Z,35.43
2022-11-09T05:35:49.860Z,35.29
2022-11-09T05:38:18.115Z,35.55
2022-11-09T05:40:49.103Z,35.24
2022-11-09T05:43:18.986Z,35.12
2022-11-09T05:45:48.219Z,35.05
2022-11-09T05:48:17.670Z,35.01
2022-11-09T05:50:46.451Z,35.20
2022-11-09T05:53:14.445Z,35.07
2022-11-09T05:55:42.849Z,35.12
2022-11-09T05:58:11.036Z,34.66
2022-11-09T06:00:40.854Z,34.65
2022-11-09T06:03:11.066Z,34.74
2022-11-09T06:05:41.417Z,34.76
2022-11-09T06:08:12.960Z,34.71
2022-11-09T06:10:41.804Z,34.97
2022-11-09T06:13:12.216Z,34.96
2022-11-09T06:15:41.957Z,34.37
2022-11-09T06:18:10.080Z,34.84
2022-11-09T06:20:38.454Z,34.67
2022-11-09T06:23:06.730Z,34.54
2022-11-09T06:25:35.430Z,34.19
2022-11-09T06:28:03.484Z,34.04
2022-11-09T06:30:31.865Z,33.75
2022-11-09T06:33:02.063Z,32.99
2022-11-09T06:35:31.286Z,32.51
2022-11-09T06:38:00.213Z,32.27
2022-11-09T06:40:29.098Z,31.83
2022-11-09T06:42:59.409Z,30.94
2022-11-09T06:45:29.139Z,30.96
2022-11-09T06:47:57.779Z,31.08
2022-11-09T06:50:28.720Z,30.73
2022-11-09T06:52:58.228Z,31.47
2022-11-09T06:55:27.585Z,31.42
2022-11-09T06:57:55.783Z,31.34
2022-11-09T07:00:25.007Z,30.77
2022-11-09T07:02:53.449Z,29.88
2022-11-09T07:05:22.016Z,28.64
2022-11-09T07:07:51.488Z,27.66
2022-11-09T07:10:20.366Z,26.73
2022-11-09T07:12:48.819Z,26.09
2022-11-09T07:15:18.699Z,25.97
2022-11-09T07:17:46.801Z,25.55
2022-11-09T07:20:15.899Z,25.15
2022-11-09T07:22:43.981Z,25.21
2022-11-09T07:25:14.102Z,25.23
2022-11-09T07:27:42.318Z,24.94
2022-11-09T07:30:11.700Z,25.02
2022-11-09T07:33:07.407Z,24.67
2022-11-09T07:35:29.871Z,23.93
2022-11-09T07:38:01.226Z,22.94
2022-11-09T07:40:31.605Z,22.13
2022-11-09T07:43:00.456Z,21.73
2022-11-09T07:45:29.278Z,21.46
2022-11-09T07:47:58.405Z,21.34
2022-11-09T07:50:27.265Z,21.45
2022-11-09T07:52:56.254Z,21.72
2022-11-09T07:55:24.994Z,21.96
2022-11-09T07:57:58.094Z,21.34
2022-11-09T08:00:27.672Z,21.46
2022-11-09T08:02:55.936Z,21.25
2022-11-09T08:05:24.415Z,21.38
2022-11-09T08:07:55.986Z,20.48
2022-11-09T08:10:24.992Z,20.47
2022-11-09T08:12:58.586Z,19.52
2022-11-09T08:15:27.826Z,19.42
2022-11-09T08:17:56.219Z,19.51
2022-11-09T08:20:24.518Z,19.79
2022-11-09T08:22:52.710Z,19.71
2022-11-09T08:25:21.538Z,19.49
2022-11-09T08:27:49.634Z,19.49
2022-11-09T08:30:21.109Z,19.83
2022-11-09T08:32:49.277Z,19.08
2022-11-09T08:35:19.122Z,20.12
2022-11-09T08:37:48.405Z,20.68
2022-11-09T08:40:18.173Z,21.34
2022-11-09T08:42:46.701Z,21.70
2022-11-09T08:45:15.577Z,21.72
2022-11-09T08:47:45.701Z,21.38
2022-11-09T08:50:15.560Z,20.95
2022-11-09T08:52:44.034Z,21.02
2022-11-09T08:55:12.397Z,21.66
2022-11-09T08:57:40.705Z,21.64
2022-11-09T09:00:10.155Z,21.58
2022-11-09T09:02:38.432Z,22.07
2022-11-09T09:05:09.172Z,22.27
2022-11-09T09:07:37.561Z,22.87
2022-11-09T09:10:06.793Z,22.94
2022-11-09T09:12:34.978Z,23.56
2022-11-09T09:15:03.439Z,23.66
2022-11-09T09:17:31.998Z,23.53
2022-11-09T09:20:00.436Z,23.69
2022-11-09T09:22:30.165Z,23.26
2022-11-09T09:24:58.596Z,22.64
2022-11-09T09:27:26.689Z,22.80
2022-11-09T09:29:55.051Z,22.37
2022-11-09T09:32:23.249Z,22.13
2022-11-09T09:34:51.649Z,22.51
2022-11-09T09:37:20.193Z,22.31
2022-11-09T09:39:49.946Z,21.87
2022-11-09T09:42:20.274Z,21.25
2022-11-09T09:44:52.805Z,20.01
2022-11-09T09:47:24.458Z,19.54
2022-11-09T09:49:56.926Z,18.76
2022-11-09T09:52:30.411Z,17.95
2022-11-09T09:55:04.262Z,16.85
2022-11-09T09:57:37.641Z,15.87
2022-11-09T10:00:23.200Z,14.67
2022-11-09T10:02:51.380Z,14.69
2022-11-09T10:05:21.314Z,14.29
2022-11-09T10:07:56.033Z,13.75
2022-11-09T10:10:38.489Z,13.43
2022-11-09T10:13:27.528Z,13.23
2022-11-09T10:15:59.038Z,13.38
2022-11-09T10:18:30.856Z,13.28
2022-11-09T10:21:11.319Z,13.45
2022-11-09T10:23:53.580Z,13.44
2022-11-09T10:26:28.673Z,12.81
2022-11-09T10:29:15.562Z,11.74
2022-11-09T10:31:45.358Z,11.82
2022-11-09T10:34:18.583Z,11.30
2022-11-09T10:36:52.447Z,11.64
2022-11-09T10:39:22.744Z,10.80
2022-11-09T10:41:52.926Z,11.22
2022-11-09T10:44:21.448Z,10.35
2022-11-09T10:47:04.505Z,9.56
2022-11-09T10:49:34.050Z,10.01
2022-11-09T10:52:02.674Z,10.21
2022-11-09T10:54:33.901Z,10.56
2022-11-09T10:57:12.285Z,10.57
2022-11-09T10:59:45.955Z,10.48
2022-11-09T11:02:43.961Z,10.52
2022-11-09T11:05:25.217Z,11.66
2022-11-09T11:07:53.326Z,12.45
2022-11-09T11:10:23.205Z,12.06
2022-11-09T11:13:24.159Z,11.28
2022-11-09T11:15:52.495Z,11.12
2022-11-09T11:18:25.650Z,11.76
2022-11-09T11:21:18.812Z,11.84
2022-11-09T11:24:05.343Z,12.15
2022-11-09T11:26:39.466Z,12.33
2022-11-09T11:29:18.382Z,12.55
2022-11-09T11:31:46.759Z,12.05
2022-11-09T11:34:32.180Z,11.73
2022-11-09T11:37:16.323Z,11.62
2022-11-09T11:40:00.677Z,11.93
2022-11-09T11:42:52.017Z,11.73
2022-11-09T11:45:41.628Z,12.34
2022-11-09T11:48:39.098Z,13.27
2022-11-09T11:51:13.055Z,14.54
2022-11-09T11:54:00.659Z,15.30
2022-11-09T11:56:32.847Z,16.73
2022-11-09T11:59:30.465Z,17.86
2022-11-09T12:02:10.472Z,18.43
2022-11-09T12:04:52.893Z,19.37
2022-11-09T12:07:27.932Z,19.58
2022-11-09T12:10:05.144Z,20.10
2022-11-09T12:12:42.056Z,20.83
2022-11-09T12:15:22.338Z,20.58
2022-11-09T12:18:00.464Z,21.14
2022-11-09T12:20:31.190Z,21.45
2022-11-09T12:23:12.426Z,22.01
2022-11-09T12:25:50.010Z,21.51
2022-11-09T12:28:32.441Z,21.47
2022-11-09T12:31:14.135Z,21.82
2022-11-09T12:33:45.121Z,20.55
2022-11-09T12:36:17.136Z,21.51
2022-11-09T12:38:55.160Z,21.34
2022-11-09T12:41:25.607Z,21.69
2022-11-09T12:43:56.916Z,21.37
2022-11-09T12:46:33.315Z,21.48
2022-11-09T12:49:06.137Z,21.44
2022-11-09T12:51:35.086Z,22.24
2022-11-09T12:54:10.169Z,21.80
2022-11-09T12:56:52.240Z,22.32
2022-11-09T12:59:22.517Z,22.25
2022-11-09T13:01:54.971Z,21.87
2022-11-09T13:04:26.074Z,22.33
2022-11-09T13:07:19.534Z,21.66
2022-11-09T13:09:54.840Z,22.19
2022-11-09T13:12:34.457Z,22.26
2022-11-09T13:15:30.790Z,22.55
2022-11-09T13:18:02.070Z,22.88
2022-11-09T13:20:55.553Z,22.36
2022-11-09T13:26:25.023Z,22.15
2022-11-09T13:29:09.389Z,22.19
2022-11-09T13:32:00.338Z,22.20
2022-11-09T13:34:46.277Z,22.74
2022-11-09T13:37:37.174Z,22.83
2022-11-09T13:40:38.877Z,22.86
2022-11-09T13:43:15.694Z,22.95
2022-11-09T13:45:46.448Z,23.60
2022-11-09T13:48:41.766Z,23.19
2022-11-09T13:51:12.502Z,23.71
2022-11-09T13:53:56.577Z,23.37
2022-11-09T13:56:30.439Z,23.41
2022-11-09T13:59:04.751Z,23.61
2022-11-09T14:01:38.254Z,24.46
2022-11-09T14:04:06.901Z,24.43
2022-11-09T14:06:35.468Z,24.52
2022-11-09T14:09:05.153Z,24.64
2022-11-09T14:11:56.158Z,24.37
2022-11-09T14:14:52.409Z,24.69
2022-11-09T14:17:25.144Z,25.08
2022-11-09T14:19:59.400Z,25.16
2022-11-09T14:22:28.288Z,25.50
2022-11-09T14:24:58.130Z,25.95
2022-11-09T14:27:26.266Z,26.23
2022-11-09T14:29:56.324Z,26.02
2022-11-09T14:32:35.822Z,25.72
2022-11-09T14:35:31.427Z,25.45
2022-11-09T14:38:01.408Z,26.20
2022-11-09T14:40:31.912Z,26.17
2022-11-09T14:43:03.210Z,26.18
2022-11-09T14:45:31.270Z,26.84
2022-11-09T14:48:00.460Z,26.70
2022-11-09T14:50:31.943Z,26.81
2022-11-09T14:53:00.560Z,27.16
2022-11-09T14:55:30.740Z,27.17
2022-11-09T14:57:59.634Z,27.08
2022-11-09T15:00:31.000Z,27.05
2022-11-09T15:02:59.733Z,27.59
2022-11-09T15:05:39.090Z,27.23
2022-11-09T15:08:17.839Z,27.23
2022-11-09T15:10:51.449Z,27.27
2022-11-09T15:13:20.957Z,27.58
2022-11-09T15:15:53.045Z,27.62
2022-11-09T15:18:25.907Z,27.78
2022-11-09T15:21:14.618Z,27.14
2022-11-09T15:23:44.109Z,28.45
2022-11-09T15:26:37.039Z,27.44
2022-11-09T15:29:27.713Z,27.63
2022-11-09T15:32:00.866Z,28.21
2022-11-09T15:34:33.377Z,28.47
2022-11-09T15:37:01.532Z,28.86
2022-11-09T15:39:29.919Z,28.99
2022-11-09T15:41:59.441Z,29.03
2022-11-09T15:44:27.881Z,29.12
2022-11-09T15:46:56.075Z,29.17
2022-11-09T15:49:26.481Z,29.30
2022-11-09T15:51:55.807Z,29.33
2022-11-09T15:54:24.914Z,29.18
2022-11-09T15:56:53.408Z,29.36
2022-11-09T15:59:25.793Z,29.01
2022-11-09T16:01:54.286Z,29.63
2022-11-09T16:04:22.725Z,29.87
2022-11-09T16:06:51.052Z,29.45
2022-11-09T16:09:19.273Z,29.82
2022-11-09T16:11:50.232Z,29.73
2022-11-09T16:14:20.219Z,30.04
2022-11-09T16:16:50.130Z,29.86
2022-11-09T16:19:18.312Z,29.98
2022-11-09T16:21:46.540Z,30.15
2022-11-09T16:24:15.019Z,30.27
2022-11-09T16:26:43.566Z,30.70
2022-11-09T16:29:12.193Z,30.41
2022-11-09T16:31:51.440Z,30.42
2022-11-09T16:34:22.476Z,30.31
2022-11-09T16:36:56.664Z,30.65
2022-11-09T16:39:26.990Z,30.55
2022-11-09T16:41:55.329Z,30.79
2022-11-09T16:44:25.267Z,31.00
2022-11-09T16:46:53.757Z,31.36
2022-11-09T16:49:23.316Z,31.19
2022-11-09T16:51:51.687Z,31.34
2022-11-09T16:54:19.750Z,31.66
2022-11-09T16:56:48.160Z,31.48
2022-11-09T16:59:16.739Z,31.67
2022-11-09T17:01:45.034Z,31.77
2022-11-09T17:04:13.182Z,31.84
2022-11-09T17:06:43.274Z,31.72
2022-11-09T17:09:11.519Z,31.78
2022-11-09T17:11:39.851Z,31.80
2022-11-09T17:14:08.506Z,31.82
2022-11-09T17:16:37.000Z,31.74
2022-11-09T17:19:06.962Z,31.82
2022-11-09T17:21:35.509Z,31.96
2022-11-09T17:24:06.651Z,31.66
2022-11-09T17:26:35.122Z,32.15
2022-11-09T17:29:03.529Z,31.90
2022-11-09T17:31:31.999Z,32.01
2022-11-09T17:34:01.530Z,32.20
2022-11-09T17:37:01.968Z,32.37
2022-11-09T17:39:19.896Z,32.22
2022-11-09T17:41:48.432Z,32.64
2022-11-09T17:44:16.789Z,32.95
2022-11-09T17:46:44.912Z,32.62
2022-11-09T17:49:13.621Z,32.95
2022-11-09T17:51:41.670Z,32.91
2022-11-09T17:54:09.753Z,32.91
2022-11-09T17:56:39.968Z,32.88
2022-11-09T17:59:08.151Z,33.16
2022-11-09T18:01:41.595Z,33.11
2022-11-09T18:04:12.018Z,32.95
2022-11-09T18:06:40.327Z,33.19
2022-11-09T18:09:39.864Z,33.47
2022-11-09T18:11:58.536Z,32.95
2022-11-09T18:14:26.784Z,33.59
2022-11-09T18:16:55.208Z,33.51
2022-11-09T18:19:23.339Z,33.67
2022-11-09T18:21:51.625Z,33.86
2022-11-09T18:24:20.200Z,33.72
2022-11-09T18:26:48.352Z,33.58
2022-11-09T18:29:17.733Z,33.58
2022-11-09T18:31:46.218Z,33.66
2022-11-09T18:34:14.810Z,34.22
2022-11-09T18:36:43.229Z,34.58
2022-11-09T18:39:11.379Z,34.70
2022-11-09T18:41:39.629Z,34.59
2022-11-09T18:44:09.579Z,34.76
2022-11-09T18:46:39.095Z,34.41
2022-11-09T18:49:13.017Z,34.83
2022-11-09T18:51:42.515Z,34.94
2022-11-09T18:54:10.921Z,35.27
2022-11-09T18:56:39.638Z,34.60
2022-11-09T18:59:08.112Z,34.66
2022-11-09T19:01:36.342Z,35.06
2022-11-09T19:04:06.300Z,34.82
2022-11-09T19:06:36.008Z,35.10
2022-11-09T19:09:22.063Z,34.93
2022-11-09T19:11:50.440Z,34.96
2022-11-09T19:14:18.494Z,35.12
2022-11-09T19:16:46.674Z,35.09
2022-11-09T19:19:16.908Z,34.63
2022-11-09T19:21:47.843Z,34.46
2022-11-09T19:24:18.032Z,34.63
2022-11-09T19:26:46.699Z,35.37
2022-11-09T19:29:16.118Z,34.91
2022-11-09T19:31:45.100Z,35.25
2022-11-09T19:34:14.069Z,35.18
2022-11-09T19:36:45.805Z,35.56
2022-11-09T19:39:13.987Z,33.95
2022-11-09T19:41:42.348Z,34.91
2022-11-09T19:44:12.889Z,35.14
2022-11-09T19:46:41.249Z,35.56
2022-11-09T19:49:10.000Z,35.50
2022-11-09T19:51:38.521Z,35.48
2022-11-09T19:54:08.568Z,35.50
2022-11-09T19:56:38.128Z,35.45
2022-11-09T19:59:07.139Z,35.57
2022-11-09T20:01:35.911Z,35.80
2022-11-09T20:04:07.791Z,35.81
2022-11-09T20:06:39.815Z,35.91
2022-11-09T20:09:09.387Z,35.47
2022-11-09T20:11:55.065Z,35.75
2022-11-09T20:14:23.680Z,35.62
2022-11-09T20:16:53.521Z,35.90
2022-11-09T20:19:21.922Z,35.82
2022-11-09T20:21:50.295Z,35.74
2022-11-09T20:24:19.748Z,35.54
2022-11-09T20:26:48.050Z,36.09
2022-11-09T20:29:16.135Z,35.90
2022-11-09T20:31:44.193Z,35.58
2022-11-09T20:34:12.733Z,35.71
2022-11-09T20:36:40.876Z,36.06
2022-11-09T20:39:09.250Z,36.10
2022-11-09T20:41:39.273Z,35.92
2022-11-09T20:44:07.667Z,35.93
2022-11-09T20:46:36.754Z,35.82
2022-11-09T20:49:05.966Z,36.31
2022-11-09T20:51:34.509Z,35.97
2022-11-09T20:54:07.306Z,35.96
2022-11-09T20:56:37.155Z,36.04
2022-11-09T20:59:06.644Z,36.35
2022-11-09T21:01:35.183Z,36.72
2022-11-09T21:04:03.599Z,36.71
2022-11-09T21:06:32.349Z,36.59
2022-11-09T21:09:01.849Z,36.36
2022-11-09T21:11:35.811Z,36.57
2022-11-09T21:14:04.304Z,36.46
2022-11-09T21:16:34.014Z,35.96
2022-11-09T21:19:02.129Z,36.20
2022-11-09T21:21:36.084Z,36.07
2022-11-09T21:24:22.869Z,36.17
2022-11-09T21:27:08.186Z,35.99
2022-11-09T21:29:51.504Z,36.15
2022-11-09T21:32:21.399Z,35.74
2022-11-09T21:34:50.258Z,35.78
2022-11-09T21:37:18.833Z,36.16
2022-11-09T21:39:46.845Z,35.67
2022-11-09T21:42:15.356Z,35.27
2022-11-09T21:44:43.775Z,35.39
2022-11-09T21:47:12.136Z,35.11
2022-11-09T21:49:41.936Z,35.06
2022-11-09T21:52:10.145Z,35.53
2022-11-09T21:54:38.993Z,35.17
2022-11-09T21:57:07.147Z,35.50
2022-11-09T21:59:35.245Z,35.34
2022-11-09T22:02:03.673Z,35.40
2022-11-09T22:04:31.686Z,35.04
2022-11-09T22:07:01.337Z,34.77
2022-11-09T22:09:45.007Z,35.08
2022-11-09T22:12:37.753Z,34.88
2022-11-09T22:15:24.665Z,34.57
2022-11-09T22:17:54.722Z,34.54
2022-11-09T22:20:40.335Z,35.42
2022-11-09T22:23:09.963Z,34.83
2022-11-09T22:25:38.273Z,35.43
2022-11-09T22:28:06.492Z,35.42
2022-11-09T22:30:34.641Z,35.11
2022-11-09T22:33:03.112Z,35.44
2022-11-09T22:35:31.273Z,35.28
2022-11-09T22:38:02.552Z,35.12
2022-11-09T22:40:32.168Z,34.94
2022-11-09T22:43:00.616Z,35.16
2022-11-09T22:45:28.603Z,34.99
2022-11-09T22:47:56.680Z,35.11
2022-11-09T22:50:25.098Z,35.39
2022-11-09T22:52:54.116Z,34.87
2022-11-09T22:55:22.393Z,34.59
2022-11-09T22:57:55.750Z,34.42
2022-11-09T23:00:24.346Z,34.69
2022-11-09T23:02:52.702Z,34.69
2022-11-09T23:05:20.814Z,34.76
2022-11-09T23:07:48.965Z,34.85
2022-11-09T23:10:17.628Z,34.83
2022-11-09T23:12:45.632Z,34.58
2022-11-09T23:15:15.210Z,34.59
2022-11-09T23:18:01.249Z,35.09
2022-11-09T23:20:35.219Z,34.34
2022-11-09T23:23:04.000Z,34.67
2022-11-09T23:25:49.718Z,34.84
2022-11-09T23:28:18.585Z,34.84
2022-11-09T23:30:49.886Z,34.37
2022-11-09T23:33:18.088Z,33.05
2022-11-09T23:35:46.402Z,34.34
2022-11-09T23:38:14.428Z,34.85
2022-11-09T23:40:42.885Z,34.73
2022-11-09T23:43:12.309Z,34.75
2022-11-09T23:45:41.484Z,34.72
2022-11-09T23:48:15.172Z,34.26
2022-11-09T23:50:43.628Z,34.64
2022-11-09T23:53:12.596Z,34.40
2022-11-09T23:55:40.760Z,34.34
2022-11-09T23:58:09.285Z,34.69
